sensor_id;sensor_type;location;lat;lon;timestamp;P1;durP1;ratioP1;P2;durP2;ratioP2
56537;SDS011;42435;53.292;6.000;2022-08-05T00:01:12;6.13;;;2.08;;
56537;SDS011;42435;53.292;6.000;2022-08-05T00:03:39;3.00;;;1.33;;
56537;SDS011;42435;53.292;6.000;2022-08-05T00:06:05;4.40;;;2.20;;
56537;SDS011;42435;53.292;6.000;2022-08-05T00:08:31;3.50;;;1.90;;
56537;SDS011;42435;53.292;6.000;2022-08-05T00:10:57;3.78;;;2.17;;
56537;SDS011;42435;53.292;6.000;2022-08-05T00:13:24;4.45;;;1.70;;
56537;SDS011;42435;53.292;6.000;2022-08-05T00:15:52;4.25;;;1.75;;
56537;SDS011;42435;53.292;6.000;2022-08-05T00:18:18;2.47;;;1.58;;
56537;SDS011;42435;53.292;6.000;2022-08-05T00:20:43;3.83;;;1.88;;
56537;SDS011;42435;53.292;6.000;2022-08-05T00:23:09;4.10;;;2.70;;
56537;SDS011;42435;53.292;6.000;2022-08-05T00:25:34;4.43;;;2.47;;
56537;SDS011;42435;53.292;6.000;2022-08-05T00:28:02;2.53;;;1.55;;
56537;SDS011;42435;53.292;6.000;2022-08-05T00:30:28;2.67;;;1.60;;
56537;SDS011;42435;53.292;6.000;2022-08-05T00:32:53;3.17;;;1.95;;
56537;SDS011;42435;53.292;6.000;2022-08-05T00:35:19;2.33;;;2.13;;
56537;SDS011;42435;53.292;6.000;2022-08-05T00:37:44;2.65;;;2.00;;
56537;SDS011;42435;53.292;6.000;2022-08-05T00:40:10;5.50;;;2.58;;
56537;SDS011;42435;53.292;6.000;2022-08-05T00:42:37;3.10;;;2.22;;
56537;SDS011;42435;53.292;6.000;2022-08-05T00:45:07;3.15;;;1.90;;
56537;SDS011;42435;53.292;6.000;2022-08-05T00:47:33;8.38;;;3.35;;
56537;SDS011;42435;53.292;6.000;2022-08-05T00:49:59;3.85;;;2.13;;
56537;SDS011;42435;53.292;6.000;2022-08-05T00:52:25;4.03;;;2.47;;
56537;SDS011;42435;53.292;6.000;2022-08-05T00:54:50;3.83;;;2.20;;
56537;SDS011;42435;53.292;6.000;2022-08-05T00:57:16;3.00;;;1.90;;
56537;SDS011;42435;53.292;6.000;2022-08-05T00:59:42;1.88;;;1.73;;
56537;SDS011;42435;53.292;6.000;2022-08-05T01:02:08;4.47;;;2.08;;
56537;SDS011;42435;53.292;6.000;2022-08-05T01:04:34;3.42;;;2.33;;
56537;SDS011;42435;53.292;6.000;2022-08-05T01:06:59;3.13;;;1.80;;
56537;SDS011;42435;53.292;6.000;2022-08-05T01:09:25;3.22;;;2.10;;
56537;SDS011;42435;53.292;6.000;2022-08-05T01:11:51;2.72;;;1.90;;
56537;SDS011;42435;53.292;6.000;2022-08-05T01:14:23;4.50;;;2.08;;
56537;SDS011;42435;53.292;6.000;2022-08-05T01:17:02;4.43;;;2.10;;
56537;SDS011;42435;53.292;6.000;2022-08-05T01:20:02;2.28;;;1.73;;
56537;SDS011;42435;53.292;6.000;2022-08-05T01:22:53;2.53;;;1.75;;
56537;SDS011;42435;53.292;6.000;2022-08-05T01:28:32;2.78;;;1.70;;
56537;SDS011;42435;53.292;6.000;2022-08-05T01:31:28;4.05;;;1.83;;
56537;SDS011;42435;53.292;6.000;2022-08-05T01:36:38;2.85;;;1.42;;
56537;SDS011;42435;53.292;6.000;2022-08-05T01:39:11;2.85;;;1.90;;
56537;SDS011;42435;53.292;6.000;2022-08-05T01:41:38;1.60;;;1.48;;
56537;SDS011;42435;53.292;6.000;2022-08-05T01:44:06;1.60;;;1.50;;
56537;SDS011;42435;53.292;6.000;2022-08-05T01:46:37;2.58;;;1.73;;
56537;SDS011;42435;53.292;6.000;2022-08-05T01:49:07;2.78;;;1.95;;
56537;SDS011;42435;53.292;6.000;2022-08-05T01:51:35;2.25;;;1.75;;
56537;SDS011;42435;53.292;6.000;2022-08-05T01:54:02;2.80;;;2.00;;
56537;SDS011;42435;53.292;6.000;2022-08-05T01:56:32;3.13;;;1.90;;
56537;SDS011;42435;53.292;6.000;2022-08-05T01:59:02;2.25;;;2.00;;
56537;SDS011;42435;53.292;6.000;2022-08-05T02:01:30;2.03;;;1.90;;
56537;SDS011;42435;53.292;6.000;2022-08-05T02:03:58;2.40;;;1.77;;
56537;SDS011;42435;53.292;6.000;2022-08-05T02:06:25;3.28;;;2.08;;
56537;SDS011;42435;53.292;6.000;2022-08-05T02:08:51;3.17;;;1.92;;
56537;SDS011;42435;53.292;6.000;2022-08-05T02:11:17;1.92;;;1.65;;
56537;SDS011;42435;53.292;6.000;2022-08-05T02:13:46;2.10;;;1.73;;
56537;SDS011;42435;53.292;6.000;2022-08-05T02:16:20;1.48;;;1.10;;
56537;SDS011;42435;53.292;6.000;2022-08-05T02:19:00;1.95;;;1.73;;
56537;SDS011;42435;53.292;6.000;2022-08-05T02:22:08;2.65;;;1.90;;
56537;SDS011;42435;53.292;6.000;2022-08-05T02:24:38;2.80;;;1.75;;
56537;SDS011;42435;53.292;6.000;2022-08-05T02:27:16;3.17;;;2.65;;
56537;SDS011;42435;53.292;6.000;2022-08-05T02:29:44;2.85;;;2.20;;
56537;SDS011;42435;53.292;6.000;2022-08-05T02:32:11;4.28;;;2.28;;
56537;SDS011;42435;53.292;6.000;2022-08-05T02:34:39;2.95;;;1.90;;
56537;SDS011;42435;53.292;6.000;2022-08-05T02:37:07;2.50;;;2.10;;
56537;SDS011;42435;53.292;6.000;2022-08-05T02:39:35;4.18;;;2.17;;
56537;SDS011;42435;53.292;6.000;2022-08-05T02:42:03;3.47;;;1.48;;
56537;SDS011;42435;53.292;6.000;2022-08-05T02:44:31;2.03;;;1.90;;
56537;SDS011;42435;53.292;6.000;2022-08-05T02:46:58;4.30;;;2.65;;
56537;SDS011;42435;53.292;6.000;2022-08-05T02:49:25;2.88;;;2.20;;
56537;SDS011;42435;53.292;6.000;2022-08-05T02:51:53;5.20;;;2.50;;
56537;SDS011;42435;53.292;6.000;2022-08-05T02:54:20;3.30;;;2.30;;
56537;SDS011;42435;53.292;6.000;2022-08-05T02:56:47;2.90;;;1.98;;
56537;SDS011;42435;53.292;6.000;2022-08-05T02:59:16;3.55;;;2.00;;
56537;SDS011;42435;53.292;6.000;2022-08-05T03:01:44;3.28;;;1.80;;
56537;SDS011;42435;53.292;6.000;2022-08-05T03:04:14;1.67;;;1.58;;
56537;SDS011;42435;53.292;6.000;2022-08-05T03:06:41;3.05;;;2.03;;
56537;SDS011;42435;53.292;6.000;2022-08-05T03:09:07;3.38;;;2.22;;
56537;SDS011;42435;53.292;6.000;2022-08-05T03:11:36;3.33;;;1.65;;
56537;SDS011;42435;53.292;6.000;2022-08-05T03:14:07;4.70;;;2.50;;
56537;SDS011;42435;53.292;6.000;2022-08-05T03:16:32;2.88;;;2.15;;
56537;SDS011;42435;53.292;6.000;2022-08-05T03:18:59;2.83;;;1.95;;
56537;SDS011;42435;53.292;6.000;2022-08-05T03:21:27;1.33;;;1.23;;
56537;SDS011;42435;53.292;6.000;2022-08-05T03:23:52;2.47;;;1.88;;
56537;SDS011;42435;53.292;6.000;2022-08-05T03:26:18;1.48;;;1.33;;
56537;SDS011;42435;53.292;6.000;2022-08-05T03:28:44;4.47;;;2.13;;
56537;SDS011;42435;53.292;6.000;2022-08-05T03:31:13;2.97;;;2.35;;
56537;SDS011;42435;53.292;6.000;2022-08-05T03:33:42;5.60;;;2.60;;
56537;SDS011;42435;53.292;6.000;2022-08-05T03:36:08;2.10;;;1.63;;
56537;SDS011;42435;53.292;6.000;2022-08-05T03:38:40;2.22;;;1.70;;
56537;SDS011;42435;53.292;6.000;2022-08-05T03:41:10;3.17;;;2.22;;
56537;SDS011;42435;53.292;6.000;2022-08-05T03:43:35;5.28;;;2.70;;
56537;SDS011;42435;53.292;6.000;2022-08-05T03:46:01;3.65;;;2.70;;
56537;SDS011;42435;53.292;6.000;2022-08-05T03:48:28;2.33;;;2.00;;
56537;SDS011;42435;53.292;6.000;2022-08-05T03:51:03;3.17;;;2.00;;
56537;SDS011;42435;53.292;6.000;2022-08-05T03:59:05;2.35;;;2.00;;
56537;SDS011;42435;53.292;6.000;2022-08-05T04:01:37;2.60;;;2.35;;
56537;SDS011;42435;53.292;6.000;2022-08-05T04:04:06;2.55;;;1.98;;
56537;SDS011;42435;53.292;6.000;2022-08-05T04:06:34;2.70;;;2.42;;
56537;SDS011;42435;53.292;6.000;2022-08-05T04:09:01;2.05;;;1.85;;
56537;SDS011;42435;53.292;6.000;2022-08-05T04:11:30;5.28;;;2.33;;
56537;SDS011;42435;53.292;6.000;2022-08-05T04:13:56;3.83;;;2.78;;
56537;SDS011;42435;53.292;6.000;2022-08-05T04:16:24;4.60;;;2.65;;
56537;SDS011;42435;53.292;6.000;2022-08-05T04:18:50;4.47;;;3.55;;
56537;SDS011;42435;53.292;6.000;2022-08-05T04:21:18;3.20;;;2.65;;
56537;SDS011;42435;53.292;6.000;2022-08-05T04:23:43;3.97;;;2.90;;
56537;SDS011;42435;53.292;6.000;2022-08-05T04:26:09;3.00;;;2.67;;
56537;SDS011;42435;53.292;6.000;2022-08-05T04:28:35;3.25;;;2.53;;
56537;SDS011;42435;53.292;6.000;2022-08-05T04:31:00;3.63;;;2.88;;
56537;SDS011;42435;53.292;6.000;2022-08-05T04:33:26;3.65;;;2.90;;
56537;SDS011;42435;53.292;6.000;2022-08-05T04:35:53;3.92;;;2.97;;
56537;SDS011;42435;53.292;6.000;2022-08-05T04:38:18;3.42;;;2.95;;
56537;SDS011;42435;53.292;6.000;2022-08-05T04:40:44;3.65;;;2.60;;
56537;SDS011;42435;53.292;6.000;2022-08-05T04:43:12;4.50;;;2.65;;
56537;SDS011;42435;53.292;6.000;2022-08-05T04:45:38;3.65;;;2.50;;
56537;SDS011;42435;53.292;6.000;2022-08-05T04:48:07;3.92;;;2.60;;
56537;SDS011;42435;53.292;6.000;2022-08-05T04:50:38;3.45;;;2.70;;
56537;SDS011;42435;53.292;6.000;2022-08-05T04:53:12;3.22;;;2.78;;
56537;SDS011;42435;53.292;6.000;2022-08-05T04:55:39;3.08;;;2.35;;
56537;SDS011;42435;53.292;6.000;2022-08-05T04:58:05;3.25;;;2.38;;
56537;SDS011;42435;53.292;6.000;2022-08-05T05:00:34;5.82;;;3.00;;
56537;SDS011;42435;53.292;6.000;2022-08-05T05:03:02;3.83;;;3.15;;
56537;SDS011;42435;53.292;6.000;2022-08-05T05:05:36;3.40;;;3.03;;
56537;SDS011;42435;53.292;6.000;2022-08-05T05:08:03;6.03;;;4.00;;
56537;SDS011;42435;53.292;6.000;2022-08-05T05:10:40;2.40;;;2.20;;
56537;SDS011;42435;53.292;6.000;2022-08-05T05:13:11;3.88;;;3.03;;
56537;SDS011;42435;53.292;6.000;2022-08-05T05:15:38;5.97;;;2.60;;
56537;SDS011;42435;53.292;6.000;2022-08-05T05:18:22;4.45;;;2.40;;
56537;SDS011;42435;53.292;6.000;2022-08-05T05:20:48;3.25;;;2.67;;
56537;SDS011;42435;53.292;6.000;2022-08-05T05:23:14;6.80;;;2.40;;
56537;SDS011;42435;53.292;6.000;2022-08-05T05:25:41;2.80;;;1.98;;
56537;SDS011;42435;53.292;6.000;2022-08-05T05:28:08;4.55;;;2.53;;
56537;SDS011;42435;53.292;6.000;2022-08-05T05:30:34;3.38;;;2.60;;
56537;SDS011;42435;53.292;6.000;2022-08-05T05:33:01;2.30;;;2.10;;
56537;SDS011;42435;53.292;6.000;2022-08-05T05:35:28;4.20;;;2.72;;
56537;SDS011;42435;53.292;6.000;2022-08-05T05:37:55;3.60;;;2.28;;
56537;SDS011;42435;53.292;6.000;2022-08-05T05:40:24;2.88;;;2.50;;
56537;SDS011;42435;53.292;6.000;2022-08-05T05:42:51;3.20;;;2.30;;
56537;SDS011;42435;53.292;6.000;2022-08-05T05:45:18;4.82;;;3.20;;
56537;SDS011;42435;53.292;6.000;2022-08-05T05:47:44;4.55;;;2.50;;
56537;SDS011;42435;53.292;6.000;2022-08-05T05:50:14;3.72;;;2.50;;
56537;SDS011;42435;53.292;6.000;2022-08-05T05:52:41;3.28;;;2.28;;
56537;SDS011;42435;53.292;6.000;2022-08-05T05:55:10;5.35;;;1.95;;
56537;SDS011;42435;53.292;6.000;2022-08-05T05:57:41;5.72;;;1.83;;
56537;SDS011;42435;53.292;6.000;2022-08-05T06:00:09;3.90;;;2.10;;
56537;SDS011;42435;53.292;6.000;2022-08-05T06:02:36;10.32;;;4.13;;
56537;SDS011;42435;53.292;6.000;2022-08-05T06:05:02;2.53;;;1.98;;
56537;SDS011;42435;53.292;6.000;2022-08-05T06:07:28;9.00;;;1.90;;
56537;SDS011;42435;53.292;6.000;2022-08-05T06:09:54;4.07;;;2.05;;
56537;SDS011;42435;53.292;6.000;2022-08-05T06:12:22;2.05;;;1.50;;
56537;SDS011;42435;53.292;6.000;2022-08-05T06:14:48;4.28;;;1.80;;
56537;SDS011;42435;53.292;6.000;2022-08-05T06:17:13;3.78;;;1.75;;
56537;SDS011;42435;53.292;6.000;2022-08-05T06:19:39;1.67;;;1.58;;
56537;SDS011;42435;53.292;6.000;2022-08-05T06:22:05;4.05;;;1.48;;
56537;SDS011;42435;53.292;6.000;2022-08-05T06:24:34;1.52;;;1.13;;
56537;SDS011;42435;53.292;6.000;2022-08-05T06:27:04;1.77;;;1.30;;
56537;SDS011;42435;53.292;6.000;2022-08-05T06:29:30;6.95;;;1.27;;
56537;SDS011;42435;53.292;6.000;2022-08-05T06:32:02;2.97;;;1.23;;
56537;SDS011;42435;53.292;6.000;2022-08-05T06:34:28;1.80;;;1.00;;
56537;SDS011;42435;53.292;6.000;2022-08-05T06:36:53;3.40;;;0.82;;
56537;SDS011;42435;53.292;6.000;2022-08-05T06:39:19;0.57;;;0.50;;
56537;SDS011;42435;53.292;6.000;2022-08-05T06:41:48;2.72;;;1.00;;
56537;SDS011;42435;53.292;6.000;2022-08-05T06:44:17;3.45;;;0.90;;
56537;SDS011;42435;53.292;6.000;2022-08-05T06:46:43;2.47;;;1.13;;
56537;SDS011;42435;53.292;6.000;2022-08-05T06:49:08;1.02;;;0.93;;
56537;SDS011;42435;53.292;6.000;2022-08-05T06:51:34;3.88;;;1.30;;
56537;SDS011;42435;53.292;6.000;2022-08-05T06:54:00;2.47;;;0.82;;
56537;SDS011;42435;53.292;6.000;2022-08-05T06:56:27;1.15;;;0.60;;
56537;SDS011;42435;53.292;6.000;2022-08-05T06:58:57;5.93;;;0.50;;
56537;SDS011;42435;53.292;6.000;2022-08-05T07:01:25;2.15;;;0.50;;
56537;SDS011;42435;53.292;6.000;2022-08-05T07:03:51;1.52;;;0.50;;
56537;SDS011;42435;53.292;6.000;2022-08-05T07:06:19;1.92;;;0.40;;
56537;SDS011;42435;53.292;6.000;2022-08-05T07:08:45;3.08;;;1.02;;
56537;SDS011;42435;53.292;6.000;2022-08-05T07:11:13;2.90;;;0.68;;
56537;SDS011;42435;53.292;6.000;2022-08-05T07:13:39;2.50;;;0.40;;
56537;SDS011;42435;53.292;6.000;2022-08-05T07:16:23;1.43;;;0.50;;
56537;SDS011;42435;53.292;6.000;2022-08-05T07:19:07;0.68;;;0.45;;
56537;SDS011;42435;53.292;6.000;2022-08-05T07:21:33;1.30;;;0.40;;
56537;SDS011;42435;53.292;6.000;2022-08-05T07:23:59;1.55;;;0.38;;
56537;SDS011;42435;53.292;6.000;2022-08-05T07:26:33;2.60;;;0.30;;
56537;SDS011;42435;53.292;6.000;2022-08-05T07:28:58;2.38;;;0.52;;
56537;SDS011;42435;53.292;6.000;2022-08-05T07:31:24;1.92;;;0.50;;
56537;SDS011;42435;53.292;6.000;2022-08-05T07:33:49;1.88;;;0.60;;
56537;SDS011;42435;53.292;6.000;2022-08-05T07:36:15;1.33;;;0.47;;
56537;SDS011;42435;53.292;6.000;2022-08-05T07:38:41;1.52;;;0.50;;
56537;SDS011;42435;53.292;6.000;2022-08-05T07:41:07;1.25;;;0.50;;
56537;SDS011;42435;53.292;6.000;2022-08-05T07:43:34;2.83;;;0.60;;
56537;SDS011;42435;53.292;6.000;2022-08-05T07:46:00;0.30;;;0.30;;
56537;SDS011;42435;53.292;6.000;2022-08-05T07:48:25;1.92;;;0.50;;
56537;SDS011;42435;53.292;6.000;2022-08-05T07:50:51;1.33;;;0.30;;
56537;SDS011;42435;53.292;6.000;2022-08-05T07:53:17;1.08;;;0.40;;
56537;SDS011;42435;53.292;6.000;2022-08-05T07:55:42;1.48;;;0.30;;
56537;SDS011;42435;53.292;6.000;2022-08-05T07:58:08;1.17;;;0.38;;
56537;SDS011;42435;53.292;6.000;2022-08-05T08:00:33;1.55;;;0.40;;
56537;SDS011;42435;53.292;6.000;2022-08-05T08:02:59;1.63;;;0.38;;
56537;SDS011;42435;53.292;6.000;2022-08-05T08:05:25;1.13;;;0.30;;
56537;SDS011;42435;53.292;6.000;2022-08-05T08:07:51;0.90;;;0.30;;
56537;SDS011;42435;53.292;6.000;2022-08-05T08:10:19;1.02;;;0.40;;
56537;SDS011;42435;53.292;6.000;2022-08-05T08:12:45;0.57;;;0.47;;
56537;SDS011;42435;53.292;6.000;2022-08-05T08:15:11;1.25;;;0.40;;
56537;SDS011;42435;53.292;6.000;2022-08-05T08:17:36;2.03;;;0.30;;
56537;SDS011;42435;53.292;6.000;2022-08-05T08:20:02;2.58;;;0.50;;
56537;SDS011;42435;53.292;6.000;2022-08-05T08:22:30;1.40;;;0.32;;
56537;SDS011;42435;53.292;6.000;2022-08-05T08:24:55;0.52;;;0.20;;
56537;SDS011;42435;53.292;6.000;2022-08-05T08:27:21;3.30;;;0.40;;
56537;SDS011;42435;53.292;6.000;2022-08-05T08:29:47;1.42;;;0.35;;
56537;SDS011;42435;53.292;6.000;2022-08-05T08:32:12;1.85;;;0.20;;
56537;SDS011;42435;53.292;6.000;2022-08-05T08:34:38;1.52;;;0.20;;
56537;SDS011;42435;53.292;6.000;2022-08-05T08:37:03;1.95;;;0.30;;
56537;SDS011;42435;53.292;6.000;2022-08-05T08:39:29;1.40;;;0.30;;
56537;SDS011;42435;53.292;6.000;2022-08-05T08:41:54;1.55;;;0.20;;
56537;SDS011;42435;53.292;6.000;2022-08-05T08:44:22;0.50;;;0.30;;
56537;SDS011;42435;53.292;6.000;2022-08-05T08:46:49;1.85;;;0.88;;
56537;SDS011;42435;53.292;6.000;2022-08-05T08:49:15;0.80;;;0.30;;
56537;SDS011;42435;53.292;6.000;2022-08-05T08:51:46;2.03;;;0.40;;
56537;SDS011;42435;53.292;6.000;2022-08-05T08:54:13;3.10;;;0.30;;
56537;SDS011;42435;53.292;6.000;2022-08-05T08:56:39;7.97;;;2.75;;
56537;SDS011;42435;53.292;6.000;2022-08-05T08:59:05;3.08;;;0.40;;
56537;SDS011;42435;53.292;6.000;2022-08-05T09:01:31;0.57;;;0.15;;
56537;SDS011;42435;53.292;6.000;2022-08-05T09:03:57;1.38;;;0.30;;
56537;SDS011;42435;53.292;6.000;2022-08-05T09:06:24;1.38;;;0.17;;
56537;SDS011;42435;53.292;6.000;2022-08-05T09:08:52;1.55;;;0.15;;
56537;SDS011;42435;53.292;6.000;2022-08-05T09:11:18;0.70;;;0.20;;
56537;SDS011;42435;53.292;6.000;2022-08-05T09:13:44;0.98;;;0.20;;
56537;SDS011;42435;53.292;6.000;2022-08-05T09:16:11;1.02;;;0.60;;
56537;SDS011;42435;53.292;6.000;2022-08-05T09:18:37;2.55;;;0.17;;
56537;SDS011;42435;53.292;6.000;2022-08-05T09:21:03;1.73;;;0.15;;
56537;SDS011;42435;53.292;6.000;2022-08-05T09:23:29;2.10;;;0.22;;
56537;SDS011;42435;53.292;6.000;2022-08-05T09:26:13;0.52;;;0.15;;
56537;SDS011;42435;53.292;6.000;2022-08-05T09:28:41;0.43;;;0.10;;
56537;SDS011;42435;53.292;6.000;2022-08-05T09:31:10;2.70;;;0.30;;
56537;SDS011;42435;53.292;6.000;2022-08-05T09:33:51;2.20;;;0.20;;
56537;SDS011;42435;53.292;6.000;2022-08-05T09:36:22;0.63;;;0.40;;
56537;SDS011;42435;53.292;6.000;2022-08-05T09:38:58;0.38;;;0.10;;
56537;SDS011;42435;53.292;6.000;2022-08-05T09:41:24;0.77;;;0.10;;
56537;SDS011;42435;53.292;6.000;2022-08-05T09:43:50;0.22;;;0.03;;
56537;SDS011;42435;53.292;6.000;2022-08-05T09:46:26;1.73;;;0.10;;
56537;SDS011;42435;53.292;6.000;2022-08-05T09:48:57;0.52;;;0.10;;
56537;SDS011;42435;53.292;6.000;2022-08-05T09:54:15;0.30;;;0.13;;
56537;SDS011;42435;53.292;6.000;2022-08-05T09:56:41;0.17;;;0.10;;
56537;SDS011;42435;53.292;6.000;2022-08-05T09:59:11;0.50;;;0.10;;
56537;SDS011;42435;53.292;6.000;2022-08-05T10:01:40;1.95;;;0.38;;
56537;SDS011;42435;53.292;6.000;2022-08-05T10:04:10;1.13;;;0.10;;
56537;SDS011;42435;53.292;6.000;2022-08-05T10:06:41;0.25;;;0.10;;
56537;SDS011;42435;53.292;6.000;2022-08-05T10:09:18;0.75;;;0.13;;
56537;SDS011;42435;53.292;6.000;2022-08-05T10:11:47;0.22;;;0.00;;
56537;SDS011;42435;53.292;6.000;2022-08-05T10:14:27;0.82;;;0.10;;
56537;SDS011;42435;53.292;6.000;2022-08-05T10:16:57;1.13;;;0.15;;
56537;SDS011;42435;53.292;6.000;2022-08-05T10:19:36;0.57;;;0.10;;
56537;SDS011;42435;53.292;6.000;2022-08-05T10:22:02;0.43;;;0.08;;
56537;SDS011;42435;53.292;6.000;2022-08-05T10:24:29;1.35;;;0.10;;
56537;SDS011;42435;53.292;6.000;2022-08-05T10:26:56;0.30;;;0.10;;
56537;SDS011;42435;53.292;6.000;2022-08-05T10:29:24;0.82;;;0.10;;
56537;SDS011;42435;53.292;6.000;2022-08-05T10:31:53;0.55;;;0.10;;
56537;SDS011;42435;53.292;6.000;2022-08-05T10:34:19;0.13;;;0.08;;
56537;SDS011;42435;53.292;6.000;2022-08-05T10:36:46;1.38;;;0.10;;
56537;SDS011;42435;53.292;6.000;2022-08-05T10:39:19;1.80;;;0.30;;
56537;SDS011;42435;53.292;6.000;2022-08-05T10:41:54;1.55;;;0.30;;
56537;SDS011;42435;53.292;6.000;2022-08-05T10:44:26;2.30;;;0.20;;
56537;SDS011;42435;53.292;6.000;2022-08-05T10:46:55;1.13;;;0.20;;
56537;SDS011;42435;53.292;6.000;2022-08-05T10:49:22;1.20;;;0.20;;
56537;SDS011;42435;53.292;6.000;2022-08-05T10:51:51;2.92;;;0.40;;
56537;SDS011;42435;53.292;6.000;2022-08-05T10:54:21;2.17;;;0.20;;
56537;SDS011;42435;53.292;6.000;2022-08-05T10:56:49;0.63;;;0.20;;
56537;SDS011;42435;53.292;6.000;2022-08-05T10:59:25;1.98;;;0.30;;
56537;SDS011;42435;53.292;6.000;2022-08-05T11:02:09;0.80;;;0.20;;
56537;SDS011;42435;53.292;6.000;2022-08-05T11:04:45;1.58;;;0.30;;
56537;SDS011;42435;53.292;6.000;2022-08-05T11:07:12;1.67;;;0.20;;
56537;SDS011;42435;53.292;6.000;2022-08-05T11:09:44;0.65;;;0.10;;
56537;SDS011;42435;53.292;6.000;2022-08-05T11:12:44;3.25;;;0.10;;
56537;SDS011;42435;53.292;6.000;2022-08-05T11:17:53;2.38;;;0.32;;
56537;SDS011;42435;53.292;6.000;2022-08-05T11:20:31;0.55;;;0.15;;
56537;SDS011;42435;53.292;6.000;2022-08-05T11:22:59;0.43;;;0.10;;
56537;SDS011;42435;53.292;6.000;2022-08-05T11:28:35;1.77;;;0.20;;
56537;SDS011;42435;53.292;6.000;2022-08-05T11:33:29;1.58;;;0.10;;
56537;SDS011;42435;53.292;6.000;2022-08-05T11:36:00;0.38;;;0.17;;
56537;SDS011;42435;53.292;6.000;2022-08-05T11:38:49;2.67;;;0.13;;
56537;SDS011;42435;53.292;6.000;2022-08-05T11:43:53;0.75;;;0.10;;
56537;SDS011;42435;53.292;6.000;2022-08-05T11:48:50;1.27;;;0.10;;
56537;SDS011;42435;53.292;6.000;2022-08-05T11:51:16;1.25;;;0.10;;
56537;SDS011;42435;53.292;6.000;2022-08-05T11:53:42;1.30;;;0.20;;
56537;SDS011;42435;53.292;6.000;2022-08-05T11:56:09;1.25;;;0.10;;
56537;SDS011;42435;53.292;6.000;2022-08-05T11:58:38;1.48;;;0.10;;
56537;SDS011;42435;53.292;6.000;2022-08-05T12:01:07;1.70;;;0.10;;
56537;SDS011;42435;53.292;6.000;2022-08-05T12:03:40;1.70;;;0.13;;
56537;SDS011;42435;53.292;6.000;2022-08-05T12:06:09;0.40;;;0.20;;
56537;SDS011;42435;53.292;6.000;2022-08-05T12:08:45;0.52;;;0.10;;
56537;SDS011;42435;53.292;6.000;2022-08-05T12:14:13;0.50;;;0.20;;
56537;SDS011;42435;53.292;6.000;2022-08-05T12:16:40;0.70;;;0.10;;
56537;SDS011;42435;53.292;6.000;2022-08-05T12:19:07;0.43;;;0.15;;
56537;SDS011;42435;53.292;6.000;2022-08-05T12:21:41;2.90;;;0.88;;
56537;SDS011;42435;53.292;6.000;2022-08-05T12:24:18;1.52;;;0.15;;
56537;SDS011;42435;53.292;6.000;2022-08-05T12:26:49;0.85;;;0.08;;
56537;SDS011;42435;53.292;6.000;2022-08-05T12:29:19;0.17;;;0.10;;
56537;SDS011;42435;53.292;6.000;2022-08-05T12:31:50;0.40;;;0.17;;
56537;SDS011;42435;53.292;6.000;2022-08-05T12:34:18;0.95;;;0.17;;
56537;SDS011;42435;53.292;6.000;2022-08-05T12:36:47;1.08;;;0.10;;
56537;SDS011;42435;53.292;6.000;2022-08-05T12:39:17;0.52;;;0.10;;
56537;SDS011;42435;53.292;6.000;2022-08-05T12:41:43;1.10;;;0.20;;
56537;SDS011;42435;53.292;6.000;2022-08-05T12:44:13;0.98;;;0.30;;
56537;SDS011;42435;53.292;6.000;2022-08-05T12:46:41;0.30;;;0.10;;
56537;SDS011;42435;53.292;6.000;2022-08-05T12:49:15;0.50;;;0.10;;
56537;SDS011;42435;53.292;6.000;2022-08-05T12:51:52;0.80;;;0.10;;
56537;SDS011;42435;53.292;6.000;2022-08-05T12:56:51;0.40;;;0.10;;
56537;SDS011;42435;53.292;6.000;2022-08-05T12:59:20;0.80;;;0.10;;
56537;SDS011;42435;53.292;6.000;2022-08-05T13:01:55;0.52;;;0.13;;
56537;SDS011;42435;53.292;6.000;2022-08-05T13:04:27;2.00;;;0.38;;
56537;SDS011;42435;53.292;6.000;2022-08-05T13:07:11;0.10;;;0.10;;
56537;SDS011;42435;53.292;6.000;2022-08-05T13:09:39;3.72;;;0.57;;
56537;SDS011;42435;53.292;6.000;2022-08-05T13:12:11;3.55;;;0.80;;
56537;SDS011;42435;53.292;6.000;2022-08-05T13:17:19;2.25;;;0.80;;
56537;SDS011;42435;53.292;6.000;2022-08-05T13:22:36;3.85;;;0.50;;
56537;SDS011;42435;53.292;6.000;2022-08-05T13:25:07;6.70;;;0.75;;
56537;SDS011;42435;53.292;6.000;2022-08-05T13:27:35;5.05;;;0.50;;
56537;SDS011;42435;53.292;6.000;2022-08-05T13:30:03;2.97;;;0.60;;
56537;SDS011;42435;53.292;6.000;2022-08-05T13:32:31;2.72;;;0.85;;
56537;SDS011;42435;53.292;6.000;2022-08-05T13:34:57;7.57;;;0.90;;
56537;SDS011;42435;53.292;6.000;2022-08-05T13:37:22;1.17;;;0.30;;
56537;SDS011;42435;53.292;6.000;2022-08-05T13:39:49;5.78;;;0.30;;
56537;SDS011;42435;53.292;6.000;2022-08-05T13:42:17;3.13;;;0.55;;
56537;SDS011;42435;53.292;6.000;2022-08-05T13:44:44;3.88;;;0.50;;
56537;SDS011;42435;53.292;6.000;2022-08-05T13:47:10;1.48;;;0.60;;
56537;SDS011;42435;53.292;6.000;2022-08-05T13:49:36;2.65;;;0.40;;
56537;SDS011;42435;53.292;6.000;2022-08-05T13:52:11;2.80;;;0.20;;
56537;SDS011;42435;53.292;6.000;2022-08-05T13:54:47;1.27;;;0.40;;
56537;SDS011;42435;53.292;6.000;2022-08-05T13:57:14;0.93;;;0.30;;
56537;SDS011;42435;53.292;6.000;2022-08-05T13:59:40;2.42;;;0.30;;
56537;SDS011;42435;53.292;6.000;2022-08-05T14:02:07;1.55;;;0.40;;
56537;SDS011;42435;53.292;6.000;2022-08-05T14:04:35;1.83;;;0.30;;
56537;SDS011;42435;53.292;6.000;2022-08-05T14:07:22;3.05;;;0.47;;
56537;SDS011;42435;53.292;6.000;2022-08-05T14:09:49;2.30;;;0.60;;
56537;SDS011;42435;53.292;6.000;2022-08-05T14:12:15;1.67;;;0.22;;
56537;SDS011;42435;53.292;6.000;2022-08-05T14:14:41;1.17;;;0.20;;
56537;SDS011;42435;53.292;6.000;2022-08-05T14:17:07;1.30;;;0.22;;
56537;SDS011;42435;53.292;6.000;2022-08-05T14:19:33;0.40;;;0.30;;
56537;SDS011;42435;53.292;6.000;2022-08-05T14:21:58;2.42;;;0.30;;
56537;SDS011;42435;53.292;6.000;2022-08-05T14:24:24;3.28;;;0.38;;
56537;SDS011;42435;53.292;6.000;2022-08-05T14:26:50;1.45;;;0.30;;
56537;SDS011;42435;53.292;6.000;2022-08-05T14:29:16;0.85;;;0.20;;
56537;SDS011;42435;53.292;6.000;2022-08-05T14:31:41;1.05;;;0.10;;
56537;SDS011;42435;53.292;6.000;2022-08-05T14:34:07;2.45;;;0.20;;
56537;SDS011;42435;53.292;6.000;2022-08-05T14:36:33;1.15;;;0.17;;
56537;SDS011;42435;53.292;6.000;2022-08-05T14:38:58;1.77;;;0.30;;
56537;SDS011;42435;53.292;6.000;2022-08-05T14:41:24;2.25;;;0.50;;
56537;SDS011;42435;53.292;6.000;2022-08-05T14:43:49;2.72;;;0.65;;
56537;SDS011;42435;53.292;6.000;2022-08-05T14:46:15;1.33;;;0.32;;
56537;SDS011;42435;53.292;6.000;2022-08-05T14:48:41;0.95;;;0.38;;
56537;SDS011;42435;53.292;6.000;2022-08-05T14:51:07;3.70;;;0.50;;
56537;SDS011;42435;53.292;6.000;2022-08-05T14:53:33;1.00;;;0.45;;
56537;SDS011;42435;53.292;6.000;2022-08-05T14:55:59;2.20;;;0.25;;
56537;SDS011;42435;53.292;6.000;2022-08-05T14:58:24;1.52;;;0.30;;
56537;SDS011;42435;53.292;6.000;2022-08-05T15:00:50;4.85;;;0.50;;
56537;SDS011;42435;53.292;6.000;2022-08-05T15:03:15;2.00;;;0.40;;
56537;SDS011;42435;53.292;6.000;2022-08-05T15:05:41;0.65;;;0.13;;
56537;SDS011;42435;53.292;6.000;2022-08-05T15:08:06;3.45;;;0.55;;
56537;SDS011;42435;53.292;6.000;2022-08-05T15:10:32;2.70;;;0.30;;
56537;SDS011;42435;53.292;6.000;2022-08-05T15:12:57;2.35;;;0.77;;
56537;SDS011;42435;53.292;6.000;2022-08-05T15:15:24;3.63;;;0.40;;
56537;SDS011;42435;53.292;6.000;2022-08-05T15:17:50;1.38;;;0.43;;
56537;SDS011;42435;53.292;6.000;2022-08-05T15:20:16;3.60;;;0.80;;
56537;SDS011;42435;53.292;6.000;2022-08-05T15:22:42;3.83;;;0.50;;
56537;SDS011;42435;53.292;6.000;2022-08-05T15:25:07;1.55;;;0.30;;
56537;SDS011;42435;53.292;6.000;2022-08-05T15:27:33;2.25;;;0.30;;
56537;SDS011;42435;53.292;6.000;2022-08-05T15:29:59;1.85;;;0.28;;
56537;SDS011;42435;53.292;6.000;2022-08-05T15:32:25;8.50;;;0.60;;
56537;SDS011;42435;53.292;6.000;2022-08-05T15:34:51;4.15;;;0.38;;